Time;durP1;ratioP1;P1;durP2;ratioP2;P2;SDS_P1;SDS_P2;PMS_P1;PMS_P2;Temp;Humidity;BMP_temperature;BMP_pressure;BME280_temperature;BME280_humidity;BME280_pressure;Samples;Min_cycle;Max_cycle;Signal;HPM_P1;HPM_P2
2022/03/31 00:00:15;;;;;;;;;;;13.50;57.20;;;;;;5049348;28;86867;-55
2022/03/31 00:02:41;;;;;;;;;;;13.50;57.20;;;;;;5049172;28;87948;-55
2022/03/31 00:05:06;;;;;;;;;;;13.40;57.10;;;;;;5048967;28;86959;-53
2022/03/31 00:07:33;;;;;;;;;;;13.50;57.20;;;;;;5048978;28;86873;-56
2022/03/31 00:09:59;;;;;;;;;;;13.40;57.20;;;;;;5049463;28;87057;-54
2022/03/31 00:12:25;;;;;;;;;;;13.40;57.20;;;;;;5048603;28;88792;-56
2022/03/31 00:14:51;;;;;;;;;;;13.40;57.20;;;;;;5049155;28;86934;-52
2022/03/31 00:17:17;;;;;;;;;;;13.40;57.20;;;;;;5050746;28;87970;-54
2022/03/31 00:19:43;;;;;;;;;;;13.40;57.20;;;;;;5048697;28;87118;-55
2022/03/31 00:34:21;;;;;;;;;;;13.40;57.10;;;;;;5045372;28;87154;-53
2022/03/31 00:36:46;;;;;;;;;;;13.40;57.10;;;;;;5049260;28;86111;-56
2022/03/31 00:39:32;;;;;;;;;;;13.40;57.10;;;;;;5048462;28;87117;-55
2022/03/31 00:41:58;;;;;;;;;;;13.40;57.10;;;;;;5050649;27;87627;-53
2022/03/31 00:44:24;;;;;;;;;;;13.30;57.10;;;;;;5047861;28;87813;-53
2022/03/31 00:46:51;;;;;;;;;;;13.40;57.10;;;;;;5048026;28;88445;-56
2022/03/31 00:49:21;;;;;;;;;;;13.30;57.10;;;;;;5048415;28;86903;-56
2022/03/31 00:51:47;;;;;;;;;;;13.30;57.10;;;;;;5047307;28;86938;-53
2022/03/31 00:54:15;;;;;;;;;;;13.40;57.10;;;;;;5047796;28;87569;-53
2022/03/31 00:56:41;;;;;;;;;;;13.40;57.10;;;;;;5048232;28;86888;-55
2022/03/31 00:59:07;;;;;;;;;;;13.30;57.10;;;;;;5048459;28;86875;-55
2022/03/31 01:01:33;;;;;;;;;;;13.30;57.10;;;;;;5048313;28;87046;-53
2022/03/31 01:04:00;;;;;;;;;;;13.30;57.00;;;;;;5051020;28;86853;-56
2022/03/31 01:06:26;;;;;;;;;;;13.30;57.10;;;;;;5046732;28;86925;-56
2022/03/31 01:08:51;;;;;;;;;;;13.30;57.10;;;;;;5047345;28;87795;-52
2022/03/31 01:11:18;;;;;;;;;;;13.40;57.10;;;;;;5047935;28;88867;-56
2022/03/31 01:13:45;;;;;;;;;;;13.30;57.20;;;;;;5047681;28;88784;-53
2022/03/31 01:16:10;;;;;;;;;;;13.30;57.20;;;;;;5048062;28;86830;-52
2022/03/31 01:18:36;;;;;;;;;;;13.30;57.30;;;;;;5048250;28;87141;-53
2022/03/31 01:21:02;;;;;;;;;;;13.30;57.20;;;;;;5047384;28;88897;-56
2022/03/31 01:23:27;;;;;;;;;;;13.30;57.30;;;;;;5051117;28;86856;-56
2022/03/31 01:25:53;;;;;;;;;;;13.30;57.30;;;;;;5047869;28;87764;-55
2022/03/31 01:28:19;;;;;;;;;;;13.30;57.30;;;;;;5048149;28;86995;-52
2022/03/31 01:30:45;;;;;;;;;;;13.30;57.30;;;;;;5046614;28;86951;-55
2022/03/31 01:33:11;;;;;;;;;;;13.30;57.30;;;;;;5046589;28;89325;-53
2022/03/31 01:35:37;;;;;;;;;;;13.30;57.30;;;;;;5047663;28;86856;-56
2022/03/31 01:38:03;;;;;;;;;;;13.30;57.30;;;;;;5046101;28;88320;-53
2022/03/31 01:40:28;;;;;;;;;;;13.30;57.40;;;;;;5046979;28;88658;-54
2022/03/31 01:42:55;;;;;;;;;;;13.20;57.30;;;;;;5047892;28;86856;-56
2022/03/31 01:45:21;;;;;;;;;;;13.20;57.30;;;;;;5048917;28;87264;-55
2022/03/31 01:47:48;;;;;;;;;;;13.30;57.40;;;;;;5047537;28;87010;-55
2022/03/31 01:50:14;;;;;;;;;;;13.20;57.30;;;;;;5047944;28;86869;-53
2022/03/31 01:52:40;;;;;;;;;;;13.20;57.40;;;;;;5046099;27;88887;-52
2022/03/31 01:55:07;;;;;;;;;;;13.20;57.40;;;;;;5047402;28;87077;-52
2022/03/31 01:57:32;;;;;;;;;;;13.20;57.40;;;;;;5046984;28;87811;-56
2022/03/31 02:00:02;;;;;;;;;;;13.20;57.40;;;;;;5046705;28;87681;-54
2022/03/31 02:02:28;;;;;;;;;;;13.20;57.40;;;;;;5047253;28;86853;-55
2022/03/31 02:04:54;;;;;;;;;;;13.20;57.40;;;;;;5047189;28;87890;-53
2022/03/31 02:07:19;;;;;;;;;;;13.20;57.50;;;;;;5049804;28;88430;-55
2022/03/31 02:09:45;;;;;;;;;;;13.20;57.50;;;;;;5047211;28;87829;-53
2022/03/31 02:12:10;;;;;;;;;;;13.20;57.50;;;;;;5046648;28;88225;-52
2022/03/31 02:14:41;;;;;;;;;;;13.20;57.50;;;;;;5047543;28;86219;-52
2022/03/31 02:17:07;;;;;;;;;;;13.20;57.50;;;;;;5047042;28;87351;-52
2022/03/31 02:19:34;;;;;;;;;;;13.20;57.50;;;;;;5046835;28;87578;-52
2022/03/31 02:21:59;;;;;;;;;;;13.20;57.50;;;;;;5046281;28;87783;-52
2022/03/31 02:24:25;;;;;;;;;;;13.10;57.50;;;;;;5046957;28;88109;-55
2022/03/31 02:26:51;;;;;;;;;;;13.20;57.50;;;;;;5046367;28;87774;-52
2022/03/31 02:29:18;;;;;;;;;;;13.20;57.50;;;;;;5050082;28;86932;-53
2022/03/31 02:31:44;;;;;;;;;;;13.20;57.50;;;;;;5045017;28;88534;-53
2022/03/31 02:34:10;;;;;;;;;;;13.10;57.50;;;;;;5045717;28;87002;-54
2022/03/31 02:36:35;;;;;;;;;;;13.10;57.50;;;;;;5046683;28;88000;-54
2022/03/31 02:39:01;;;;;;;;;;;13.10;57.50;;;;;;5046708;28;87667;-55
2022/03/31 02:41:27;;;;;;;;;;;13.10;57.50;;;;;;5045611;28;86968;-52
2022/03/31 02:43:52;;;;;;;;;;;13.10;57.60;;;;;;5045923;28;88140;-52
2022/03/31 02:46:19;;;;;;;;;;;13.10;57.60;;;;;;5045473;28;89367;-52
2022/03/31 02:48:45;;;;;;;;;;;13.10;57.60;;;;;;5046532;28;86933;-51
2022/03/31 02:51:10;;;;;;;;;;;13.10;57.60;;;;;;5049008;28;88049;-52
2022/03/31 02:56:20;;;;;;;;;;;13.10;57.70;;;;;;5046669;28;86812;-52
2022/03/31 02:58:46;;;;;;;;;;;13.10;57.70;;;;;;5045947;28;88855;-53
2022/03/31 03:01:12;;;;;;;;;;;13.10;57.70;;;;;;5046634;28;86898;-54
2022/03/31 03:03:37;;;;;;;;;;;13.10;57.70;;;;;;5046978;28;86846;-53
2022/03/31 03:06:03;;;;;;;;;;;13.10;57.70;;;;;;5045924;28;88759;-53
2022/03/31 03:08:31;;;;;;;;;;;13.10;57.70;;;;;;5046380;28;86877;-52
2022/03/31 03:10:57;;;;;;;;;;;13.10;57.70;;;;;;5048281;28;87853;-53
2022/03/31 03:13:23;;;;;;;;;;;13.10;57.70;;;;;;5046202;28;86875;-52
2022/03/31 03:15:49;;;;;;;;;;;13.10;57.70;;;;;;5046555;28;86847;-52
2022/03/31 03:18:17;;;;;;;;;;;13.10;57.70;;;;;;5046034;28;87587;-54
2022/03/31 03:20:43;;;;;;;;;;;13.10;57.70;;;;;;5046115;28;86841;-52
2022/03/31 03:23:08;;;;;;;;;;;13.00;57.70;;;;;;5046122;28;87209;-52
2022/03/31 03:25:34;;;;;;;;;;;13.10;57.80;;;;;;5045696;28;88689;-51
2022/03/31 03:28:00;;;;;;;;;;;13.00;57.70;;;;;;5046596;28;86249;-51
2022/03/31 03:30:25;;;;;;;;;;;13.00;57.70;;;;;;5046125;28;87401;-52
2022/03/31 03:32:51;;;;;;;;;;;13.00;57.70;;;;;;5048594;28;88588;-55
2022/03/31 03:35:17;;;;;;;;;;;13.10;57.80;;;;;;5045664;28;87903;-52
2022/03/31 03:37:43;;;;;;;;;;;13.00;57.80;;;;;;5044925;28;89000;-52
2022/03/31 03:40:09;;;;;;;;;;;13.10;57.80;;;;;;5045780;28;86921;-52
2022/03/31 03:42:38;;;;;;;;;;;13.00;57.80;;;;;;5045940;28;87990;-53
2022/03/31 03:45:05;;;;;;;;;;;13.00;57.80;;;;;;5045382;28;88657;-52
2022/03/31 03:47:31;;;;;;;;;;;13.00;57.80;;;;;;5045871;28;87178;-53
2022/03/31 03:49:57;;;;;;;;;;;13.00;57.80;;;;;;5046093;28;86815;-53
2022/03/31 03:52:23;;;;;;;;;;;13.00;57.80;;;;;;5045934;28;87678;-53
2022/03/31 03:54:50;;;;;;;;;;;13.00;57.90;;;;;;5048604;28;86944;-53
2022/03/31 03:57:16;;;;;;;;;;;13.00;57.80;;;;;;5045465;28;88327;-52
2022/03/31 03:59:41;;;;;;;;;;;13.00;57.90;;;;;;5044937;28;87857;-52
2022/03/31 04:02:07;;;;;;;;;;;13.10;58.00;;;;;;5045409;28;87770;-52
2022/03/31 04:04:33;;;;;;;;;;;13.00;57.80;;;;;;5045212;28;88547;-52
2022/03/31 04:06:59;;;;;;;;;;;13.00;57.80;;;;;;5045633;28;86773;-52
2022/03/31 04:09:25;;;;;;;;;;;13.00;57.80;;;;;;5045830;28;86847;-52
2022/03/31 04:11:51;;;;;;;;;;;13.00;57.90;;;;;;5045233;28;88548;-52
2022/03/31 04:14:17;;;;;;;;;;;13.00;57.90;;;;;;5044617;28;86937;-54
2022/03/31 04:16:43;;;;;;;;;;;13.00;57.90;;;;;;5049981;28;87950;-54
2022/03/31 04:19:09;;;;;;;;;;;12.90;57.80;;;;;;5048803;28;87042;-53
2022/03/31 04:21:35;;;;;;;;;;;13.00;57.90;;;;;;5048864;28;87115;-54
2022/03/31 04:24:02;;;;;;;;;;;13.00;57.90;;;;;;5047690;28;89481;-55
2022/03/31 04:26:28;;;;;;;;;;;13.00;58.00;;;;;;5048412;28;86948;-52
2022/03/31 04:28:54;;;;;;;;;;;12.90;58.00;;;;;;5049022;28;86873;-52
2022/03/31 04:31:19;;;;;;;;;;;13.00;58.00;;;;;;5048524;28;86862;-51
2022/03/31 04:33:45;;;;;;;;;;;12.90;58.00;;;;;;5048926;28;86840;-52
2022/03/31 04:36:10;;;;;;;;;;;12.90;58.00;;;;;;5048924;28;86921;-54
2022/03/31 04:38:36;;;;;;;;;;;13.00;58.00;;;;;;5050360;28;87784;-54
2022/03/31 04:41:02;;;;;;;;;;;13.00;58.00;;;;;;5048884;28;87331;-51
2022/03/31 04:43:27;;;;;;;;;;;12.90;58.00;;;;;;5047729;28;86907;-52
2022/03/31 04:45:53;;;;;;;;;;;12.90;58.00;;;;;;5048676;28;86949;-51
2022/03/31 04:48:19;;;;;;;;;;;13.00;58.10;;;;;;5047988;28;87957;-52
2022/03/31 04:50:44;;;;;;;;;;;12.90;58.10;;;;;;5048020;28;87654;-52
2022/03/31 04:53:11;;;;;;;;;;;12.90;58.70;;;;;;5048276;28;87308;-52
2022/03/31 04:55:37;;;;;;;;;;;12.90;58.10;;;;;;5048349;28;88014;-53
2022/03/31 04:58:03;;;;;;;;;;;12.90;58.10;;;;;;5048161;28;87192;-53
2022/03/31 05:00:29;;;;;;;;;;;12.90;58.10;;;;;;5051073;28;86882;-52
2022/03/31 05:02:56;;;;;;;;;;;12.90;58.10;;;;;;5047073;28;89152;-52
2022/03/31 05:05:21;;;;;;;;;;;12.90;58.10;;;;;;5048997;28;86385;-53
2022/03/31 05:07:47;;;;;;;;;;;12.90;58.20;;;;;;5048532;28;87039;-52
2022/03/31 05:10:13;;;;;;;;;;;12.90;58.20;;;;;;5047774;28;88549;-52
2022/03/31 05:12:38;;;;;;;;;;;12.90;58.20;;;;;;5047370;28;87923;-52
2022/03/31 05:15:04;;;;;;;;;;;12.90;58.30;;;;;;5048275;28;87602;-52
2022/03/31 05:17:34;;;;;;;;;;;12.90;58.30;;;;;;5047602;28;88302;-53
2022/03/31 05:20:03;;;;;;;;;;;12.90;58.30;;;;;;5050351;28;86872;-54
2022/03/31 05:22:30;;;;;;;;;;;12.90;58.20;;;;;;5046914;28;87562;-54
2022/03/31 05:24:55;;;;;;;;;;;12.80;58.20;;;;;;5046450;28;87545;-53
2022/03/31 05:27:21;;;;;;;;;;;12.90;58.30;;;;;;5046255;27;87853;-56
2022/03/31 05:29:47;;;;;;;;;;;12.90;58.30;;;;;;5047779;28;86720;-54
2022/03/31 05:32:12;;;;;;;;;;;12.90;58.30;;;;;;5047198;28;86968;-53
2022/03/31 05:34:38;;;;;;;;;;;12.90;58.40;;;;;;5046925;28;86977;-52
2022/03/31 05:37:05;;;;;;;;;;;12.90;58.30;;;;;;5046292;28;88220;-55
2022/03/31 05:39:32;;;;;;;;;;;12.90;58.40;;;;;;5046984;28;87053;-55
2022/03/31 05:41:58;;;;;;;;;;;12.80;58.50;;;;;;5048687;28;86962;-54
2022/03/31 05:44:23;;;;;;;;;;;12.90;58.60;;;;;;5046405;28;86966;-54
2022/03/31 05:46:49;;;;;;;;;;;12.90;58.60;;;;;;5047233;28;86878;-56
2022/03/31 05:49:15;;;;;;;;;;;12.90;58.70;;;;;;5062362;27;88396;-56
2022/03/31 05:51:40;;;;;;;;;;;12.90;58.70;;;;;;5046979;28;86878;-55
2022/03/31 05:54:06;;;;;;;;;;;12.90;58.80;;;;;;5047346;28;88026;-56
2022/03/31 05:56:32;;;;;;;;;;;12.80;58.80;;;;;;5046472;28;88649;-52
2022/03/31 05:58:59;;;;;;;;;;;12.90;58.90;;;;;;5046858;28;86939;-52
2022/03/31 06:01:25;;;;;;;;;;;12.80;58.90;;;;;;5046426;28;87830;-55
2022/03/31 06:03:50;;;;;;;;;;;12.80;59.00;;;;;;5049180;28;87977;-52
2022/03/31 06:06:16;;;;;;;;;;;12.80;59.20;;;;;;5046760;28;87935;-56
2022/03/31 06:08:42;;;;;;;;;;;12.80;59.10;;;;;;5046836;28;87610;-53
2022/03/31 06:11:07;;;;;;;;;;;12.80;59.10;;;;;;5047352;28;86894;-52
2022/03/31 06:13:33;;;;;;;;;;;12.90;59.20;;;;;;5047096;28;87827;-51
2022/03/31 06:15:59;;;;;;;;;;;12.80;59.20;;;;;;5046476;28;87696;-53
2022/03/31 06:18:24;;;;;;;;;;;12.80;59.20;;;;;;5047453;28;86184;-51
2022/03/31 06:20:50;;;;;;;;;;;12.80;59.20;;;;;;5046867;28;87192;-53
2022/03/31 06:23:16;;;;;;;;;;;12.80;59.30;;;;;;5046510;28;88633;-52
2022/03/31 06:25:42;;;;;;;;;;;12.90;59.40;;;;;;5049536;28;87818;-53
2022/03/31 06:28:08;;;;;;;;;;;12.90;59.40;;;;;;5046744;28;87366;-52
2022/03/31 06:30:34;;;;;;;;;;;12.80;59.50;;;;;;5046684;28;86890;-52
2022/03/31 06:33:00;;;;;;;;;;;12.90;59.70;;;;;;5046428;28;86930;-52
2022/03/31 06:35:25;;;;;;;;;;;12.80;59.60;;;;;;5045447;28;88767;-56
2022/03/31 06:37:51;;;;;;;;;;;12.80;59.70;;;;;;5045980;27;86891;-55
2022/03/31 06:40:17;;;;;;;;;;;12.80;59.70;;;;;;5045266;28;86969;-51
2022/03/31 06:42:43;;;;;;;;;;;12.80;59.90;;;;;;5046362;28;87877;-55
2022/03/31 06:45:12;;;;;;;;;;;12.80;59.80;;;;;;5046411;28;86897;-55
2022/03/31 06:47:39;;;;;;;;;;;12.80;59.70;;;;;;5047308;28;88363;-56
2022/03/31 06:50:05;;;;;;;;;;;12.80;59.60;;;;;;5044078;28;87963;-55
2022/03/31 06:52:30;;;;;;;;;;;12.90;59.70;;;;;;5044656;28;89277;-54
2022/03/31 06:54:56;;;;;;;;;;;12.90;59.70;;;;;;5045692;28;88602;-55
2022/03/31 06:57:23;;;;;;;;;;;12.90;59.80;;;;;;5045912;28;86835;-56
2022/03/31 06:59:49;;;;;;;;;;;12.90;59.80;;;;;;5044529;28;88120;-57
2022/03/31 07:02:14;;;;;;;;;;;12.90;59.80;;;;;;5045569;28;88777;-53
2022/03/31 07:04:40;;;;;;;;;;;12.90;59.80;;;;;;5045839;28;86910;-56
2022/03/31 07:07:05;;;;;;;;;;;12.90;59.80;;;;;;5046313;28;87811;-55
2022/03/31 07:09:31;;;;;;;;;;;12.90;59.90;;;;;;5048524;28;88596;-54
2022/03/31 07:11:57;;;;;;;;;;;12.90;59.90;;;;;;5045615;28;88193;-56
2022/03/31 07:14:22;;;;;;;;;;;12.90;59.90;;;;;;5044735;28;89375;-55
2022/03/31 07:16:48;;;;;;;;;;;12.90;60.00;;;;;;5045805;28;86976;-56
2022/03/31 07:19:14;;;;;;;;;;;12.90;60.00;;;;;;5045802;28;88237;-55
2022/03/31 07:21:40;;;;;;;;;;;12.90;60.00;;;;;;5045363;28;87350;-55
2022/03/31 07:24:06;;;;;;;;;;;12.90;60.10;;;;;;5045559;28;86967;-55
2022/03/31 07:26:31;;;;;;;;;;;12.90;60.10;;;;;;5045526;28;88946;-55
2022/03/31 07:28:57;;;;;;;;;;;12.90;60.00;;;;;;5048001;28;88653;-53
2022/03/31 07:31:24;;;;;;;;;;;13.00;60.10;;;;;;5045923;28;87979;-56
2022/03/31 07:33:50;;;;;;;;;;;13.00;60.10;;;;;;5044269;28;87631;-55
2022/03/31 07:36:17;;;;;;;;;;;13.00;60.20;;;;;;5045317;28;86895;-53
2022/03/31 07:38:43;;;;;;;;;;;13.00;60.20;;;;;;5044381;28;87849;-52
2022/03/31 07:41:09;;;;;;;;;;;12.90;60.10;;;;;;5044588;28;88500;-54
2022/03/31 07:43:35;;;;;;;;;;;13.00;60.30;;;;;;5045221;28;86851;-54
2022/03/31 07:46:00;;;;;;;;;;;13.00;60.20;;;;;;5045099;28;87941;-55
2022/03/31 07:48:26;;;;;;;;;;;13.00;60.30;;;;;;5044798;28;87832;-53
2022/03/31 07:50:54;;;;;;;;;;;13.00;60.30;;;;;;5049480;27;86862;-54
2022/03/31 07:53:20;;;;;;;;;;;13.00;60.30;;;;;;5048404;28;86914;-53
2022/03/31 07:55:45;;;;;;;;;;;12.90;60.40;;;;;;5049265;28;86172;-53
2022/03/31 07:58:11;;;;;;;;;;;13.00;60.40;;;;;;5048711;28;87282;-54
2022/03/31 08:00:37;;;;;;;;;;;13.00;60.40;;;;;;5048379;28;87579;-55
2022/03/31 08:03:02;;;;;;;;;;;13.00;60.30;;;;;;5048328;28;87815;-55
2022/03/31 08:05:29;;;;;;;;;;;13.00;60.40;;;;;;5048600;28;88956;-55
2022/03/31 08:07:55;;;;;;;;;;;13.00;60.50;;;;;;5048439;28;88502;-52
2022/03/31 08:10:21;;;;;;;;;;;13.00;60.50;;;;;;5048570;28;86969;-54
2022/03/31 08:12:47;;;;;;;;;;;12.90;60.60;;;;;;5051386;28;86913;-55
2022/03/31 08:15:15;;;;;;;;;;;12.90;60.80;;;;;;5048631;28;86977;-55
2022/03/31 08:17:41;;;;;;;;;;;12.90;60.80;;;;;;5048434;28;88434;-56
2022/03/31 08:20:11;;;;;;;;;;;12.90;60.80;;;;;;5048877;28;87530;-54
2022/03/31 08:22:38;;;;;;;;;;;12.90;60.80;;;;;;5048886;28;86878;-55
2022/03/31 08:25:05;;;;;;;;;;;12.90;60.80;;;;;;5048889;28;88133;-52
2022/03/31 08:27:32;;;;;;;;;;;13.00;60.80;;;;;;5047659;28;89674;-55
2022/03/31 08:29:57;;;;;;;;;;;13.00;60.80;;;;;;5048191;28;87073;-56
2022/03/31 08:32:23;;;;;;;;;;;13.00;60.70;;;;;;5048111;28;88156;-56
2022/03/31 08:34:49;;;;;;;;;;;13.00;60.80;;;;;;5050690;28;88674;-54
2022/03/31 08:37:14;;;;;;;;;;;13.10;60.70;;;;;;5048032;28;88157;-55
2022/03/31 08:39:40;;;;;;;;;;;13.00;60.70;;;;;;5047727;28;87482;-53
2022/03/31 08:42:06;;;;;;;;;;;13.10;60.90;;;;;;5048150;28;86983;-55
2022/03/31 08:44:32;;;;;;;;;;;13.10;60.80;;;;;;5048467;28;87845;-53
2022/03/31 08:46:58;;;;;;;;;;;13.00;60.80;;;;;;5047748;28;88957;-51
2022/03/31 08:49:24;;;;;;;;;;;13.10;60.90;;;;;;5047853;28;86889;-55
2022/03/31 08:51:51;;;;;;;;;;;13.10;60.90;;;;;;5047573;28;87786;-52
2022/03/31 08:54:16;;;;;;;;;;;13.10;61.00;;;;;;5047688;28;88565;-56
2022/03/31 08:56:42;;;;;;;;;;;13.00;60.90;;;;;;5050937;28;86867;-53
2022/03/31 08:59:07;;;;;;;;;;;13.00;61.00;;;;;;5047710;28;87803;-56
2022/03/31 09:01:33;;;;;;;;;;;13.10;61.10;;;;;;5047400;27;87225;-56
2022/03/31 09:04:00;;;;;;;;;;;13.10;61.00;;;;;;5047689;28;87943;-53
2022/03/31 09:06:28;;;;;;;;;;;13.10;61.00;;;;;;5047257;28;88604;-53
2022/03/31 09:08:58;;;;;;;;;;;13.10;61.10;;;;;;5048040;28;86134;-55
2022/03/31 09:11:26;;;;;;;;;;;13.10;61.10;;;;;;5047512;28;87171;-56
2022/03/31 09:13:54;;;;;;;;;;;13.10;61.20;;;;;;5047068;28;88500;-56
2022/03/31 09:16:28;;;;;;;;;;;13.10;61.40;;;;;;5046722;28;87876;-53
2022/03/31 09:18:59;;;;;;;;;;;13.10;61.20;;;;;;5050240;28;87933;-53
2022/03/31 09:21:24;;;;;;;;;;;13.00;61.30;;;;;;5047323;28;86818;-53
2022/03/31 09:23:50;;;;;;;;;;;13.10;61.30;;;;;;5047403;28;88259;-56
2022/03/31 09:26:16;;;;;;;;;;;13.10;61.40;;;;;;5047146;28;87397;-54
2022/03/31 09:28:45;;;;;;;;;;;13.10;61.50;;;;;;5047180;28;86903;-55
2022/03/31 09:31:12;;;;;;;;;;;13.10;61.40;;;;;;5047420;28;87845;-56
2022/03/31 09:33:38;;;;;;;;;;;13.10;61.20;;;;;;5047659;28;87967;-54
2022/03/31 09:36:07;;;;;;;;;;;13.10;61.30;;;;;;5047998;28;86939;-53
2022/03/31 09:38:36;;;;;;;;;;;13.10;61.20;;;;;;5049824;28;87933;-52
2022/03/31 09:41:03;;;;;;;;;;;13.10;61.30;;;;;;5046899;28;87980;-57
2022/03/31 09:43:40;;;;;;;;;;;13.10;61.40;;;;;;5047606;28;87993;-52
2022/03/31 09:46:16;;;;;;;;;;;13.10;61.50;;;;;;5047170;28;88487;-54
2022/03/31 09:48:43;;;;;;;;;;;13.10;61.50;;;;;;5047735;28;86886;-53
2022/03/31 09:51:09;;;;;;;;;;;13.10;61.50;;;;;;5047425;28;87903;-52
2022/03/31 09:53:35;;;;;;;;;;;13.20;61.70;;;;;;5047142;28;87604;-51
2022/03/31 09:56:01;;;;;;;;;;;13.20;61.60;;;;;;5047462;28;86883;-53
2022/03/31 09:58:27;;;;;;;;;;;13.20;61.60;;;;;;5047752;28;88030;-54
2022/03/31 10:00:53;;;;;;;;;;;13.20;61.70;;;;;;5049742;28;87667;-52
2022/03/31 10:03:20;;;;;;;;;;;13.20;61.70;;;;;;5047381;28;87432;-53
2022/03/31 10:05:46;;;;;;;;;;;13.10;61.70;;;;;;5045830;28;89384;-55
2022/03/31 10:08:12;;;;;;;;;;;13.10;61.70;;;;;;5046993;28;86843;-55
2022/03/31 10:10:39;;;;;;;;;;;13.10;61.90;;;;;;5046732;28;87848;-54
2022/03/31 10:13:15;;;;;;;;;;;13.10;61.80;;;;;;5045454;27;87664;-52
2022/03/31 10:15:41;;;;;;;;;;;13.10;62.00;;;;;;5046532;28;86890;-54
2022/03/31 10:18:06;;;;;;;;;;;13.10;61.80;;;;;;5046507;28;87864;-54
2022/03/31 10:20:32;;;;;;;;;;;13.20;61.80;;;;;;5046381;28;87362;-53
2022/03/31 10:25:46;;;;;;;;;;;13.10;61.80;;;;;;5043078;28;87004;-53
2022/03/31 10:28:13;;;;;;;;;;;13.10;62.00;;;;;;5046450;28;86890;-54
2022/03/31 10:30:40;;;;;;;;;;;13.10;61.90;;;;;;5045699;28;87928;-55
2022/03/31 10:33:08;;;;;;;;;;;13.10;61.80;;;;;;5045848;28;88532;-55
2022/03/31 10:35:37;;;;;;;;;;;13.10;62.00;;;;;;5046612;28;87270;-53
2022/03/31 10:38:16;;;;;;;;;;;13.10;61.90;;;;;;5045852;28;87884;-55
2022/03/31 10:40:43;;;;;;;;;;;13.10;61.90;;;;;;5045637;28;88021;-56
2022/03/31 10:43:22;;;;;;;;;;;13.10;62.00;;;;;;5045970;28;86992;-55
2022/03/31 10:45:49;;;;;;;;;;;13.10;62.00;;;;;;5048784;28;87978;-56
2022/03/31 10:48:19;;;;;;;;;;;13.10;62.10;;;;;;5046748;28;86178;-55
2022/03/31 10:50:46;;;;;;;;;;;13.20;62.10;;;;;;5046153;28;87502;-55
2022/03/31 10:53:12;;;;;;;;;;;13.20;61.90;;;;;;5044241;28;88537;-56
2022/03/31 10:55:43;;;;;;;;;;;13.20;62.00;;;;;;5045405;28;87766;-52
2022/03/31 10:58:20;;;;;;;;;;;13.20;61.90;;;;;;5045466;28;89000;-56
2022/03/31 11:00:46;;;;;;;;;;;13.20;62.00;;;;;;5045560;28;88718;-56
2022/03/31 11:03:15;;;;;;;;;;;13.30;61.90;;;;;;5046017;28;86859;-56
2022/03/31 11:05:41;;;;;;;;;;;13.20;62.10;;;;;;5046252;28;86778;-56
2022/03/31 11:08:07;;;;;;;;;;;13.20;61.70;;;;;;5048548;28;87480;-55
2022/03/31 11:10:52;;;;;;;;;;;13.30;62.10;;;;;;5045962;28;87348;-52
2022/03/31 11:13:20;;;;;;;;;;;13.30;62.00;;;;;;5045617;28;87193;-53
2022/03/31 11:15:54;;;;;;;;;;;13.30;62.00;;;;;;5045507;28;86933;-56
2022/03/31 11:18:21;;;;;;;;;;;13.20;62.30;;;;;;5045633;28;87830;-55
2022/03/31 11:20:48;;;;;;;;;;;13.30;62.30;;;;;;5044481;28;89489;-54
2022/03/31 11:23:14;;;;;;;;;;;13.20;62.10;;;;;;5037126;28;87077;-53
2022/03/31 11:25:42;;;;;;;;;;;13.20;62.20;;;;;;5048066;27;87994;-55
2022/03/31 11:28:09;;;;;;;;;;;13.20;62.40;;;;;;5048990;28;87264;-56
2022/03/31 11:30:35;;;;;;;;;;;13.20;62.40;;;;;;5052043;28;86936;-56
2022/03/31 11:33:02;;;;;;;;;;;13.20;62.70;;;;;;5048811;28;88778;-54
2022/03/31 11:35:28;;;;;;;;;;;13.20;62.40;;;;;;5049085;28;86946;-56
2022/03/31 11:37:54;;;;;;;;;;;13.30;62.40;;;;;;5049508;28;87928;-56
2022/03/31 11:40:20;;;;;;;;;;;13.30;62.40;;;;;;5048395;28;88414;-56
2022/03/31 11:42:46;;;;;;;;;;;13.30;62.50;;;;;;5048989;28;86883;-55
2022/03/31 11:45:21;;;;;;;;;;;13.30;62.30;;;;;;5048273;28;87846;-54
2022/03/31 11:47:55;;;;;;;;;;;13.30;62.30;;;;;;5048820;28;87303;-56
2022/03/31 11:50:20;;;;;;;;;;;13.30;62.40;;;;;;5051657;28;86982;-52
2022/03/31 11:52:48;;;;;;;;;;;13.30;62.60;;;;;;5048632;28;86941;-57
2022/03/31 11:55:14;;;;;;;;;;;13.40;62.60;;;;;;5049075;28;86914;-54
2022/03/31 11:57:49;;;;;;;;;;;13.40;62.60;;;;;;5048776;28;87708;-57
2022/03/31 12:00:14;;;;;;;;;;;13.40;62.70;;;;;;5048532;28;88752;-55
2022/03/31 12:02:40;;;;;;;;;;;13.40;63.10;;;;;;5049220;28;86154;-56
2022/03/31 12:05:11;;;;;;;;;;;13.40;62.70;;;;;;5047610;28;87424;-56
2022/03/31 12:07:37;;;;;;;;;;;13.40;63.00;;;;;;5048324;28;87450;-56
2022/03/31 12:10:03;;;;;;;;;;;13.40;62.80;;;;;;5048059;28;87833;-56
2022/03/31 12:12:29;;;;;;;;;;;13.50;63.00;;;;;;5051379;28;88137;-57
2022/03/31 12:14:56;;;;;;;;;;;13.40;62.60;;;;;;5048071;28;86905;-57
2022/03/31 12:17:22;;;;;;;;;;;13.40;62.70;;;;;;5047182;28;88509;-55
2022/03/31 12:19:48;;;;;;;;;;;13.50;63.30;;;;;;5047858;28;87641;-54
2022/03/31 12:22:14;;;;;;;;;;;13.50;62.90;;;;;;5048541;28;86781;-54
2022/03/31 12:24:47;;;;;;;;;;;13.50;62.90;;;;;;5048326;28;88053;-56
2022/03/31 12:27:14;;;;;;;;;;;13.50;62.70;;;;;;5048312;28;87797;-55
2022/03/31 12:29:39;;;;;;;;;;;13.50;62.90;;;;;;5048478;28;86907;-56
2022/03/31 12:32:06;;;;;;;;;;;13.60;62.80;;;;;;5048473;28;86859;-56
2022/03/31 12:34:33;;;;;;;;;;;13.50;62.90;;;;;;5050181;28;89651;-54
2022/03/31 12:36:59;;;;;;;;;;;13.50;63.00;;;;;;5047751;27;87653;-56
2022/03/31 12:39:25;;;;;;;;;;;13.50;63.10;;;;;;5046979;28;88755;-55
2022/03/31 12:41:52;;;;;;;;;;;13.60;63.20;;;;;;5048002;28;86902;-56
2022/03/31 12:44:21;;;;;;;;;;;13.60;63.30;;;;;;5047883;28;88012;-55
2022/03/31 12:46:52;;;;;;;;;;;13.60;63.10;;;;;;5047512;28;88435;-55
2022/03/31 12:49:19;;;;;;;;;;;13.60;63.50;;;;;;5048016;28;86998;-53
2022/03/31 12:51:51;;;;;;;;;;;13.60;63.30;;;;;;5048338;28;88086;-57
2022/03/31 12:54:35;;;;;;;;;;;13.50;63.30;;;;;;5047815;28;87421;-56
2022/03/31 12:57:06;;;;;;;;;;;13.50;63.50;;;;;;5050845;28;86897;-56
2022/03/31 12:59:33;;;;;;;;;;;13.50;63.50;;;;;;5046560;28;89897;-55
2022/03/31 13:02:01;;;;;;;;;;;13.60;63.70;;;;;;5047703;28;86898;-55
2022/03/31 13:04:26;;;;;;;;;;;13.60;63.20;;;;;;5047933;28;87056;-56
2022/03/31 13:06:52;;;;;;;;;;;13.60;63.40;;;;;;5047507;28;87623;-53
2022/03/31 13:09:18;;;;;;;;;;;13.60;63.30;;;;;;5048107;28;86899;-54
2022/03/31 13:11:43;;;;;;;;;;;13.60;63.50;;;;;;5047596;28;88060;-56
2022/03/31 13:14:13;;;;;;;;;;;13.60;64.10;;;;;;5047030;28;87673;-52
2022/03/31 13:16:40;;;;;;;;;;;13.70;63.70;;;;;;5048111;28;86324;-55
2022/03/31 13:19:06;;;;;;;;;;;13.70;63.50;;;;;;5049982;28;87172;-53
2022/03/31 13:21:32;;;;;;;;;;;13.70;63.60;;;;;;5047289;28;86916;-53
2022/03/31 13:23:58;;;;;;;;;;;13.70;63.30;;;;;;5046871;28;87810;-57
2022/03/31 13:26:23;;;;;;;;;;;13.70;63.50;;;;;;5046957;28;88530;-55
2022/03/31 13:28:49;;;;;;;;;;;13.70;63.50;;;;;;5047567;28;86923;-56
2022/03/31 13:31:14;;;;;;;;;;;13.70;63.80;;;;;;5047502;28;87114;-56
2022/03/31 13:33:40;;;;;;;;;;;13.70;63.60;;;;;;5047143;28;87229;-56
2022/03/31 13:36:06;;;;;;;;;;;13.70;63.80;;;;;;5047254;28;86896;-56
2022/03/31 13:38:34;;;;;;;;;;;13.70;63.60;;;;;;5049852;28;86889;-57
2022/03/31 13:41:00;;;;;;;;;;;13.70;64.00;;;;;;5047340;28;86360;-57
2022/03/31 13:43:26;;;;;;;;;;;13.70;63.90;;;;;;5046964;28;87556;-55
2022/03/31 13:45:52;;;;;;;;;;;13.70;64.10;;;;;;5046912;28;87477;-55
2022/03/31 13:48:18;;;;;;;;;;;13.60;64.10;;;;;;5045395;28;87822;-53
2022/03/31 13:50:44;;;;;;;;;;;13.60;64.10;;;;;;5046956;28;88905;-55
2022/03/31 13:55:55;;;;;;;;;;;13.60;64.10;;;;;;5047269;28;86862;-57
2022/03/31 14:01:13;;;;;;;;;;;13.60;64.00;;;;;;5049635;28;87182;-56
2022/03/31 14:03:41;;;;;;;;;;;13.60;64.20;;;;;;5040997;28;87986;-56
2022/03/31 14:06:06;;;;;;;;;;;13.70;64.20;;;;;;5044758;28;86749;-56
2022/03/31 14:08:34;;;;;;;;;;;13.60;64.20;;;;;;5046313;28;86941;-55
2022/03/31 14:11:00;;;;;;;;;;;13.70;64.30;;;;;;5046978;28;86960;-56
2022/03/31 14:13:25;;;;;;;;;;;13.60;64.20;;;;;;5045546;28;89530;-54
2022/03/31 14:15:52;;;;;;;;;;;13.70;64.10;;;;;;5046667;28;86959;-53
2022/03/31 14:18:18;;;;;;;;;;;13.60;64.40;;;;;;5046594;28;87909;-54
2022/03/31 14:20:44;;;;;;;;;;;13.60;64.40;;;;;;5046117;28;88721;-56
2022/03/31 14:23:10;;;;;;;;;;;13.70;64.40;;;;;;5048399;28;86964;-53
2022/03/31 14:25:35;;;;;;;;;;;13.70;64.30;;;;;;5046130;28;88351;-57
2022/03/31 14:28:01;;;;;;;;;;;13.70;64.30;;;;;;5046443;28;86922;-56
2022/03/31 14:30:27;;;;;;;;;;;13.70;64.30;;;;;;5047150;28;86815;-57
2022/03/31 14:32:52;;;;;;;;;;;13.70;64.20;;;;;;5046054;28;87941;-56
2022/03/31 14:35:18;;;;;;;;;;;13.70;64.10;;;;;;5046219;28;86891;-56